createdAt,value
2022-07-26T00:01:23.985Z,4.10
2022-07-26T00:06:30.945Z,4.10
2022-07-26T00:11:34.334Z,4.00
2022-07-26T00:16:38.134Z,3.85
2022-07-26T00:21:41.293Z,4.63
2022-07-26T00:26:44.059Z,4.33
2022-07-26T00:31:46.914Z,4.22
2022-07-26T00:36:49.796Z,4.13
2022-07-26T00:41:52.494Z,4.10
2022-07-26T00:46:55.263Z,4.20
2022-07-26T00:51:58.395Z,4.20
2022-07-26T00:57:01.655Z,4.40
2022-07-26T01:02:07.019Z,4.60
2022-07-26T01:07:14.752Z,4.32
2022-07-26T01:12:18.609Z,4.70
2022-07-26T01:17:21.356Z,4.87
2022-07-26T01:22:24.109Z,5.40
2022-07-26T01:27:31.993Z,4.97
2022-07-26T01:32:36.736Z,5.03
2022-07-26T01:37:39.572Z,5.32
2022-07-26T01:42:42.416Z,5.17
2022-07-26T01:47:50.232Z,5.35
2022-07-26T01:52:53.160Z,5.10
2022-07-26T01:57:56.091Z,5.97
2022-07-26T02:02:59.653Z,5.25
2022-07-26T02:08:02.519Z,5.37
2022-07-26T02:13:06.105Z,5.55
2022-07-26T02:18:10.555Z,5.30
2022-07-26T02:23:13.464Z,5.57
2022-07-26T02:28:17.025Z,5.40
2022-07-26T02:33:20.606Z,5.50
2022-07-26T02:38:24.590Z,5.40
2022-07-26T02:43:28.066Z,5.83
2022-07-26T02:48:32.083Z,5.05
2022-07-26T02:53:34.855Z,4.75
2022-07-26T02:58:38.230Z,4.93
2022-07-26T03:03:41.129Z,5.18
2022-07-26T03:08:43.987Z,4.43
2022-07-26T03:13:46.787Z,4.88
2022-07-26T03:18:49.485Z,4.70
2022-07-26T03:23:52.308Z,4.60
2022-07-26T03:28:56.145Z,4.75
2022-07-26T03:34:03.140Z,5.50
2022-07-26T03:39:06.166Z,5.28
2022-07-26T03:44:09.314Z,4.82
2022-07-26T03:49:16.602Z,4.70
2022-07-26T03:54:19.888Z,5.38
2022-07-26T03:59:24.416Z,5.33
2022-07-26T04:04:27.202Z,5.45
2022-07-26T04:09:30.006Z,5.15
2022-07-26T04:14:32.676Z,5.23
2022-07-26T04:19:37.146Z,4.90
2022-07-26T04:24:42.857Z,5.03
2022-07-26T04:29:45.618Z,4.63
2022-07-26T04:34:48.386Z,4.93
2022-07-26T04:39:54.910Z,5.20
2022-07-26T04:44:57.820Z,5.63
2022-07-26T04:50:00.623Z,4.97
2022-07-26T04:55:03.572Z,5.32
2022-07-26T05:00:21.299Z,4.82
2022-07-26T05:05:26.839Z,5.10
2022-07-26T05:10:34.106Z,5.20
2022-07-26T05:15:37.201Z,5.03
2022-07-26T05:20:40.387Z,5.10
2022-07-26T05:25:43.067Z,5.15
2022-07-26T05:30:45.992Z,4.90
2022-07-26T05:35:48.818Z,5.20
2022-07-26T05:40:51.686Z,5.13
2022-07-26T05:45:54.732Z,5.10
2022-07-26T05:51:00.958Z,5.18
2022-07-26T05:56:04.408Z,4.90
2022-07-26T06:01:07.834Z,5.22
2022-07-26T06:06:12.104Z,5.50
2022-07-26T06:11:14.935Z,5.10
2022-07-26T06:16:17.960Z,5.10
2022-07-26T06:21:20.666Z,5.20
2022-07-26T06:26:24.177Z,5.45
2022-07-26T06:31:27.056Z,5.67
2022-07-26T06:36:30.938Z,5.97
2022-07-26T06:41:34.105Z,6.32
2022-07-26T06:46:37.063Z,5.87
2022-07-26T06:51:40.107Z,6.30
2022-07-26T06:56:42.913Z,5.47
2022-07-26T07:01:58.120Z,5.25
2022-07-26T07:07:06.061Z,5.82
2022-07-26T07:12:10.621Z,5.60
2022-07-26T07:17:17.246Z,5.82
2022-07-26T07:22:23.022Z,6.20
2022-07-26T07:27:27.347Z,5.57
2022-07-26T07:32:30.449Z,5.88
2022-07-26T07:37:52.864Z,6.00
2022-07-26T07:42:56.195Z,6.07
2022-07-26T07:47:59.024Z,6.13
2022-07-26T07:53:02.283Z,5.53
2022-07-26T07:58:05.201Z,6.47
2022-07-26T08:03:09.093Z,6.57
2022-07-26T08:08:11.887Z,6.53
2022-07-26T08:13:17.025Z,7.37
2022-07-26T08:18:24.724Z,8.27
2022-07-26T08:23:27.734Z,8.35
2022-07-26T08:28:46.742Z,9.07
2022-07-26T08:33:50.429Z,7.95
2022-07-26T08:38:53.282Z,10.13
2022-07-26T08:44:04.438Z,9.88
2022-07-26T08:49:09.273Z,11.02
2022-07-26T08:54:14.897Z,11.73
2022-07-26T08:59:21.559Z,10.63
2022-07-26T09:04:32.682Z,8.93
2022-07-26T09:10:00.723Z,10.73
2022-07-26T09:15:07.165Z,10.40
2022-07-26T09:20:15.738Z,10.57
2022-07-26T09:25:23.099Z,10.75
2022-07-26T09:30:28.284Z,10.47
2022-07-26T09:35:50.430Z,10.27
2022-07-26T09:40:55.736Z,11.63
2022-07-26T09:46:07.354Z,10.73
2022-07-26T09:51:10.696Z,11.27
2022-07-26T09:56:14.452Z,11.57
2022-07-26T10:01:17.278Z,11.18
2022-07-26T10:06:21.015Z,11.52
2022-07-26T10:11:26.276Z,12.03
2022-07-26T10:16:32.494Z,13.43
2022-07-26T10:21:35.567Z,13.17
2022-07-26T10:26:43.087Z,12.77
2022-07-26T10:32:01.237Z,12.18
2022-07-26T10:37:06.666Z,12.03
2022-07-26T10:42:11.343Z,11.93
2022-07-26T10:47:18.427Z,11.37
2022-07-26T10:52:30.024Z,10.10
2022-07-26T10:57:40.774Z,9.63
2022-07-26T11:02:44.392Z,9.87
2022-07-26T11:07:53.905Z,10.23
2022-07-26T11:13:21.292Z,10.77
2022-07-26T11:18:28.592Z,10.95
2022-07-26T11:23:35.427Z,10.95
2022-07-26T11:28:51.180Z,11.33
2022-07-26T11:33:54.655Z,12.18
2022-07-26T11:38:57.584Z,12.40
2022-07-26T11:44:04.853Z,12.48
2022-07-26T11:49:25.059Z,13.10
2022-07-26T11:54:54.888Z,13.40
2022-07-26T12:00:00.033Z,12.95
2022-07-26T12:05:20.610Z,11.07
2022-07-26T12:10:24.405Z,11.88
2022-07-26T12:15:27.437Z,12.40
2022-07-26T12:20:30.246Z,11.23
2022-07-26T12:25:33.711Z,11.90
2022-07-26T12:30:36.750Z,12.50
2022-07-26T12:35:39.875Z,12.07
2022-07-26T12:40:43.477Z,11.68
2022-07-26T12:45:46.482Z,10.20
2022-07-26T12:50:49.342Z,13.05
2022-07-26T12:55:52.047Z,13.33
2022-07-26T13:00:54.938Z,12.82
2022-07-26T13:05:58.732Z,12.10
2022-07-26T13:11:01.624Z,11.93
2022-07-26T13:16:09.601Z,11.65
2022-07-26T13:21:14.645Z,10.23
2022-07-26T13:26:17.476Z,8.23
2022-07-26T13:31:20.663Z,6.80
2022-07-26T13:36:23.630Z,5.70
2022-07-26T13:41:26.975Z,6.13
2022-07-26T13:46:33.619Z,5.53
2022-07-26T13:51:56.889Z,4.75
2022-07-26T13:57:01.476Z,4.53
2022-07-26T14:02:05.420Z,4.83
2022-07-26T14:07:08.396Z,5.18
2022-07-26T14:12:15.929Z,6.20
2022-07-26T14:17:18.862Z,6.38
2022-07-26T14:22:21.817Z,6.90
2022-07-26T14:27:24.977Z,6.70
2022-07-26T14:32:27.951Z,7.18
2022-07-26T14:37:43.809Z,7.50
2022-07-26T14:42:48.420Z,7.70
2022-07-26T14:47:51.495Z,7.25
2022-07-26T14:52:55.621Z,5.90
2022-07-26T14:57:59.606Z,5.88
2022-07-26T15:03:02.607Z,5.60
2022-07-26T15:08:06.367Z,6.15
2022-07-26T15:13:09.537Z,5.35
2022-07-26T15:18:12.367Z,5.53
2022-07-26T15:23:15.611Z,5.78
2022-07-26T15:28:18.726Z,6.10
2022-07-26T15:33:21.540Z,6.32
2022-07-26T15:38:24.317Z,6.82
2022-07-26T15:43:48.163Z,6.43
2022-07-26T15:48:50.350Z,6.45
2022-07-26T15:53:53.320Z,6.17
2022-07-26T15:58:56.522Z,5.95
2022-07-26T16:03:59.437Z,6.45
2022-07-26T16:09:16.674Z,6.60
2022-07-26T16:14:20.777Z,6.90
2022-07-26T16:19:23.616Z,6.20
2022-07-26T16:24:26.462Z,6.78
2022-07-26T16:29:29.290Z,7.45
2022-07-26T16:34:35.267Z,7.00
2022-07-26T16:39:38.096Z,7.90
2022-07-26T16:44:40.937Z,7.77
2022-07-26T16:49:43.879Z,7.43
2022-07-26T16:54:46.733Z,6.80
2022-07-26T16:59:49.934Z,6.77
2022-07-26T17:04:54.205Z,7.45
2022-07-26T17:09:57.155Z,6.70
2022-07-26T17:15:00.865Z,7.30
2022-07-26T17:20:05.604Z,7.63
2022-07-26T17:25:08.971Z,6.60
2022-07-26T17:30:12.849Z,7.00
2022-07-26T17:35:15.886Z,7.13
2022-07-26T17:40:19.037Z,7.45
2022-07-26T17:45:21.932Z,7.15
2022-07-26T17:50:40.087Z,6.77
2022-07-26T17:55:42.804Z,6.97
2022-07-26T18:00:46.338Z,7.23
2022-07-26T18:05:49.898Z,7.55
2022-07-26T18:10:58.948Z,7.03
2022-07-26T18:16:05.918Z,7.33
2022-07-26T18:21:09.171Z,8.05
2022-07-26T18:26:12.023Z,7.20
2022-07-26T18:31:15.045Z,6.95
2022-07-26T18:36:17.976Z,7.68
2022-07-26T18:41:20.955Z,7.57
2022-07-26T18:46:24.745Z,8.20
2022-07-26T18:51:27.526Z,7.80
2022-07-26T18:56:30.385Z,7.88
2022-07-26T19:01:33.647Z,7.28
2022-07-26T19:06:38.465Z,7.27
2022-07-26T19:11:41.554Z,8.00
2022-07-26T19:16:44.433Z,7.60
2022-07-26T19:21:49.536Z,7.72
2022-07-26T19:26:52.314Z,8.13
2022-07-26T19:31:55.084Z,7.23
2022-07-26T19:36:58.223Z,7.18
2022-07-26T19:42:01.172Z,7.30
2022-07-26T19:47:04.023Z,7.40
2022-07-26T19:52:11.364Z,7.65
2022-07-26T19:57:14.804Z,6.53
2022-07-26T20:02:17.808Z,7.53
2022-07-26T20:07:20.677Z,6.50
2022-07-26T20:12:23.717Z,6.07
2022-07-26T20:17:26.929Z,5.47
2022-07-26T20:22:30.113Z,6.30
2022-07-26T20:27:33.036Z,6.10
2022-07-26T20:32:36.085Z,6.00
2022-07-26T20:37:39.045Z,6.20
2022-07-26T20:42:42.067Z,9.75
2022-07-26T20:47:47.859Z,5.20
2022-07-26T20:52:50.693Z,6.60
2022-07-26T20:57:53.896Z,6.80
2022-07-26T21:02:59.699Z,6.78
2022-07-26T21:08:02.605Z,4.60
2022-07-26T21:13:05.718Z,4.73
2022-07-26T21:18:09.088Z,6.30
2022-07-26T21:23:17.842Z,4.40
2022-07-26T21:28:21.657Z,5.60
2022-07-26T21:33:27.338Z,15.55
2022-07-26T21:38:32.191Z,11.50
2022-07-26T21:43:34.934Z,4.88
2022-07-26T21:48:38.946Z,4.60
2022-07-26T21:53:41.971Z,5.38
2022-07-26T21:58:44.738Z,5.30
2022-07-26T22:03:49.667Z,5.53
2022-07-26T22:08:52.572Z,5.25
2022-07-26T22:13:55.667Z,9.33
2022-07-26T22:18:58.437Z,5.07
2022-07-26T22:24:05.930Z,4.47
2022-07-26T22:29:11.730Z,7.40
2022-07-26T22:34:14.669Z,5.03
2022-07-26T22:39:17.428Z,4.70
2022-07-26T22:44:20.047Z,4.68
2022-07-26T22:49:22.780Z,4.95
2022-07-26T22:54:25.540Z,4.77
2022-07-26T22:59:28.270Z,5.60
2022-07-26T23:04:31.046Z,5.10
2022-07-26T23:09:33.957Z,5.10
2022-07-26T23:14:37.552Z,4.65
2022-07-26T23:19:40.707Z,4.67
2022-07-26T23:24:43.783Z,6.70
2022-07-26T23:29:46.539Z,4.43
2022-07-26T23:34:51.357Z,4.90
2022-07-26T23:39:54.062Z,4.50
2022-07-26T23:44:56.827Z,4.53
2022-07-26T23:49:59.520Z,4.55
2022-07-26T23:55:02.380Z,5.00
